Sandnessjøen, Norge

05:31:CET den 10. februar 2016 (GMT +0100)
Stokka | | Change Station
CLOSE
Current Station
Flyplass
Location: Sandnessjoen,
Høyde over havet: 56 ft
Nearby Weather Stations

H.o.h 56 ft 65.96 °N, 12.47 °E | Updated 11 minutes ago

Scattered Clouds
Sporadisk skyet
36 °F
Feels Like 26 °F
N
17
Vind Variabel Vind from NNØ

I dag
High -- | Low -- °F
--% Chance of Precip.
I går
High -- | Low -- °F
Precip. -- tommer
Lufttrykk 29.06 tommer
Sikt 6.2 eng. mil
Skyet Few 1200 ft
Sporadisk skyet 2000 ft
Nedkjølingseffekt 26 °F
Duggpunkt 30 °F
Fuktighet 81%
Regn 0.00 tommer
Snødybde Not available.
8:35 AM 4:13 PM
Økende sigd, 3% visible
METAR ENST 100420Z 02015KT 9999 VCSH FEW012 SCT020 02/M01 Q0984 RMK WIND 300FT 01014G24KT
Lufttrykk 29.06 tommer
Sikt 6.2 eng. mil
Skyet Few 1200 ft
Sporadisk skyet 2000 ft
Nedkjølingseffekt 26 °F
Duggpunkt 30 °F
Fuktighet 81%
Regn 0.00 tommer
Snødybde Not available.
8:35 AM 4:13 PM
Økende sigd, 3% visible
METAR ENST 100420Z 02015KT 9999 VCSH FEW012 SCT020 02/M01 Q0984 RMK WIND 300FT 01014G24KT

10-Day Weather Forecast

Almanac

Astronomi

Feb. 10, 2016 Oppgang Nedgang
Virkelig tid
Tussmørke
Nautisk skumring
Astronomisk skumring
Månen
Lengde av synlig lys
Dagens lengde
Tomorrow will be .
, % of the Moon is Illuminated

Dagens maks og min

Country Highs Country Lows

Community

WunderPhotos

Upload Photos

1,891,805 photos uploaded!

WunderBlog® & News

Nearby

Luftkvalitet

  Luftkvalitet AQ Indeks Forurensing
Not available.

Snødybde

Stasjon Depth Høyde over havet

Earthquake Activity

By Distance Mag. Time & Date
Minimum magnitude displayed is 2.5.

Coastal Water Temperatures

Sted Temperatur

Stations

Nearby Weather Stations

Stasjonens lokasjon Temp. Nedkjølingseffekt Duggpunkt Fuktighet Vind Precip. H.o.h Oppdatert Type